sensor_id;sensor_type;location;lat;lon;timestamp;P1;durP1;ratioP1;P2;durP2;ratioP2
8007;SDS011;4049;49.468;11.200;2022-10-16T00:00:35;4.20;;;1.77;;
8007;SDS011;4049;49.468;11.200;2022-10-16T00:03:04;5.20;;;1.60;;
8007;SDS011;4049;49.468;11.200;2022-10-16T00:05:31;2.07;;;1.70;;
8007;SDS011;4049;49.468;11.200;2022-10-16T00:07:58;3.23;;;2.10;;
8007;SDS011;4049;49.468;11.200;2022-10-16T00:10:26;3.13;;;1.60;;
8007;SDS011;4049;49.468;11.200;2022-10-16T00:12:53;2.43;;;1.47;;
8007;SDS011;4049;49.468;11.200;2022-10-16T00:15:20;1.90;;;1.50;;
8007;SDS011;4049;49.468;11.200;2022-10-16T00:17:46;2.50;;;1.63;;
8007;SDS011;4049;49.468;11.200;2022-10-16T00:20:13;1.80;;;1.50;;
8007;SDS011;4049;49.468;11.200;2022-10-16T00:22:40;2.93;;;1.77;;
8007;SDS011;4049;49.468;11.200;2022-10-16T00:25:07;1.63;;;1.50;;
8007;SDS011;4049;49.468;11.200;2022-10-16T00:27:35;3.10;;;1.50;;
8007;SDS011;4049;49.468;11.200;2022-10-16T00:30:02;2.40;;;1.40;;
8007;SDS011;4049;49.468;11.200;2022-10-16T00:32:30;3.23;;;1.57;;
8007;SDS011;4049;49.468;11.200;2022-10-16T00:34:57;3.00;;;1.70;;
8007;SDS011;4049;49.468;11.200;2022-10-16T00:37:23;2.73;;;1.57;;
8007;SDS011;4049;49.468;11.200;2022-10-16T00:39:50;3.50;;;1.70;;
8007;SDS011;4049;49.468;11.200;2022-10-16T00:42:17;4.53;;;1.60;;
8007;SDS011;4049;49.468;11.200;2022-10-16T00:44:50;1.60;;;1.50;;
8007;SDS011;4049;49.468;11.200;2022-10-16T00:47:19;1.60;;;1.43;;
8007;SDS011;4049;49.468;11.200;2022-10-16T00:49:51;3.43;;;1.77;;
8007;SDS011;4049;49.468;11.200;2022-10-16T00:52:22;2.50;;;1.50;;
8007;SDS011;4049;49.468;11.200;2022-10-16T00:54:49;3.17;;;1.40;;
8007;SDS011;4049;49.468;11.200;2022-10-16T00:57:18;2.03;;;1.40;;
8007;SDS011;4049;49.468;11.200;2022-10-16T00:59:45;2.20;;;1.60;;
8007;SDS011;4049;49.468;11.200;2022-10-16T01:02:15;1.70;;;1.40;;
8007;SDS011;4049;49.468;11.200;2022-10-16T01:04:44;2.00;;;1.67;;
8007;SDS011;4049;49.468;11.200;2022-10-16T01:07:14;3.10;;;1.60;;
8007;SDS011;4049;49.468;11.200;2022-10-16T01:09:51;3.57;;;1.80;;
8007;SDS011;4049;49.468;11.200;2022-10-16T01:12:26;1.73;;;1.47;;
8007;SDS011;4049;49.468;11.200;2022-10-16T01:15:01;1.97;;;1.63;;
8007;SDS011;4049;49.468;11.200;2022-10-16T01:17:34;1.73;;;1.53;;
8007;SDS011;4049;49.468;11.200;2022-10-16T01:20:10;3.37;;;1.80;;
8007;SDS011;4049;49.468;11.200;2022-10-16T01:22:47;2.90;;;1.60;;
8007;SDS011;4049;49.468;11.200;2022-10-16T01:25:23;5.40;;;1.50;;
8007;SDS011;4049;49.468;11.200;2022-10-16T01:27:57;1.67;;;1.57;;
8007;SDS011;4049;49.468;11.200;2022-10-16T01:30:26;3.67;;;1.60;;
8007;SDS011;4049;49.468;11.200;2022-10-16T01:32:57;1.43;;;1.30;;
8007;SDS011;4049;49.468;11.200;2022-10-16T01:35:27;2.97;;;1.37;;
8007;SDS011;4049;49.468;11.200;2022-10-16T01:37:58;2.00;;;1.57;;
8007;SDS011;4049;49.468;11.200;2022-10-16T01:40:29;2.60;;;1.73;;
8007;SDS011;4049;49.468;11.200;2022-10-16T01:43:01;1.63;;;1.50;;
8007;SDS011;4049;49.468;11.200;2022-10-16T01:45:31;3.03;;;1.83;;
8007;SDS011;4049;49.468;11.200;2022-10-16T01:48:00;1.70;;;1.40;;
8007;SDS011;4049;49.468;11.200;2022-10-16T01:50:30;1.53;;;1.40;;
8007;SDS011;4049;49.468;11.200;2022-10-16T01:52:59;2.40;;;1.60;;
8007;SDS011;4049;49.468;11.200;2022-10-16T01:55:28;1.67;;;1.57;;
8007;SDS011;4049;49.468;11.200;2022-10-16T01:58:00;1.50;;;1.40;;
8007;SDS011;4049;49.468;11.200;2022-10-16T02:00:28;1.93;;;1.60;;
8007;SDS011;4049;49.468;11.200;2022-10-16T02:02:56;1.57;;;1.40;;
8007;SDS011;4049;49.468;11.200;2022-10-16T02:05:26;2.20;;;1.50;;
8007;SDS011;4049;49.468;11.200;2022-10-16T02:07:56;1.43;;;1.30;;
8007;SDS011;4049;49.468;11.200;2022-10-16T02:10:25;2.33;;;1.50;;
8007;SDS011;4049;49.468;11.200;2022-10-16T02:12:56;1.70;;;1.60;;
8007;SDS011;4049;49.468;11.200;2022-10-16T02:15:28;2.63;;;1.70;;
8007;SDS011;4049;49.468;11.200;2022-10-16T02:17:55;3.43;;;1.57;;
8007;SDS011;4049;49.468;11.200;2022-10-16T02:20:22;2.63;;;1.80;;
8007;SDS011;4049;49.468;11.200;2022-10-16T02:22:53;1.63;;;1.20;;
8007;SDS011;4049;49.468;11.200;2022-10-16T02:25:24;2.87;;;1.20;;
8007;SDS011;4049;49.468;11.200;2022-10-16T02:27:55;3.93;;;1.70;;
8007;SDS011;4049;49.468;11.200;2022-10-16T02:30:29;4.07;;;1.80;;
8007;SDS011;4049;49.468;11.200;2022-10-16T02:33:00;2.10;;;1.50;;
8007;SDS011;4049;49.468;11.200;2022-10-16T02:35:31;3.33;;;1.67;;
8007;SDS011;4049;49.468;11.200;2022-10-16T02:37:58;3.47;;;1.47;;
8007;SDS011;4049;49.468;11.200;2022-10-16T02:40:25;3.60;;;1.50;;
8007;SDS011;4049;49.468;11.200;2022-10-16T02:42:53;1.70;;;1.60;;
8007;SDS011;4049;49.468;11.200;2022-10-16T02:45:21;1.67;;;1.57;;
8007;SDS011;4049;49.468;11.200;2022-10-16T02:47:50;5.80;;;1.70;;
8007;SDS011;4049;49.468;11.200;2022-10-16T02:50:17;4.53;;;1.50;;
8007;SDS011;4049;49.468;11.200;2022-10-16T02:52:44;2.73;;;1.63;;
8007;SDS011;4049;49.468;11.200;2022-10-16T02:55:11;1.80;;;1.37;;
8007;SDS011;4049;49.468;11.200;2022-10-16T02:57:37;1.50;;;1.40;;
8007;SDS011;4049;49.468;11.200;2022-10-16T03:00:05;2.20;;;1.50;;
8007;SDS011;4049;49.468;11.200;2022-10-16T03:02:33;2.83;;;1.43;;
8007;SDS011;4049;49.468;11.200;2022-10-16T03:05:01;2.90;;;1.30;;
8007;SDS011;4049;49.468;11.200;2022-10-16T03:07:28;3.77;;;1.70;;
8007;SDS011;4049;49.468;11.200;2022-10-16T03:09:54;2.53;;;1.50;;
8007;SDS011;4049;49.468;11.200;2022-10-16T03:12:21;1.47;;;1.37;;
8007;SDS011;4049;49.468;11.200;2022-10-16T03:14:48;2.47;;;1.30;;
8007;SDS011;4049;49.468;11.200;2022-10-16T03:17:15;1.70;;;1.50;;
8007;SDS011;4049;49.468;11.200;2022-10-16T03:19:42;2.03;;;1.70;;
8007;SDS011;4049;49.468;11.200;2022-10-16T03:22:10;2.33;;;1.30;;
8007;SDS011;4049;49.468;11.200;2022-10-16T03:24:37;1.53;;;1.30;;
8007;SDS011;4049;49.468;11.200;2022-10-16T03:27:04;2.97;;;1.80;;
8007;SDS011;4049;49.468;11.200;2022-10-16T03:29:30;1.70;;;1.43;;
8007;SDS011;4049;49.468;11.200;2022-10-16T03:31:58;1.90;;;1.40;;
8007;SDS011;4049;49.468;11.200;2022-10-16T03:34:24;2.00;;;1.50;;
8007;SDS011;4049;49.468;11.200;2022-10-16T03:36:51;1.63;;;1.50;;
8007;SDS011;4049;49.468;11.200;2022-10-16T03:39:19;1.40;;;1.30;;
8007;SDS011;4049;49.468;11.200;2022-10-16T03:41:46;1.90;;;1.67;;
8007;SDS011;4049;49.468;11.200;2022-10-16T03:44:13;2.87;;;1.50;;
8007;SDS011;4049;49.468;11.200;2022-10-16T03:46:40;3.03;;;1.70;;
8007;SDS011;4049;49.468;11.200;2022-10-16T03:49:07;2.90;;;1.50;;
8007;SDS011;4049;49.468;11.200;2022-10-16T03:51:34;2.30;;;1.60;;
8007;SDS011;4049;49.468;11.200;2022-10-16T03:54:00;2.17;;;1.67;;
8007;SDS011;4049;49.468;11.200;2022-10-16T03:56:28;2.50;;;1.57;;
8007;SDS011;4049;49.468;11.200;2022-10-16T03:58:55;2.13;;;1.37;;
8007;SDS011;4049;49.468;11.200;2022-10-16T04:01:22;3.07;;;1.63;;
8007;SDS011;4049;49.468;11.200;2022-10-16T04:03:49;1.77;;;1.50;;
8007;SDS011;4049;49.468;11.200;2022-10-16T04:06:15;1.87;;;1.50;;
8007;SDS011;4049;49.468;11.200;2022-10-16T04:08:42;1.70;;;1.60;;
8007;SDS011;4049;49.468;11.200;2022-10-16T04:11:09;1.50;;;1.40;;
8007;SDS011;4049;49.468;11.200;2022-10-16T04:13:37;1.83;;;1.40;;
8007;SDS011;4049;49.468;11.200;2022-10-16T04:16:04;2.83;;;1.50;;
8007;SDS011;4049;49.468;11.200;2022-10-16T04:18:31;3.80;;;1.70;;
8007;SDS011;4049;49.468;11.200;2022-10-16T04:21:01;1.90;;;1.60;;
8007;SDS011;4049;49.468;11.200;2022-10-16T04:23:29;1.90;;;1.70;;
8007;SDS011;4049;49.468;11.200;2022-10-16T04:25:58;2.33;;;1.53;;
8007;SDS011;4049;49.468;11.200;2022-10-16T04:28:26;4.30;;;1.80;;
8007;SDS011;4049;49.468;11.200;2022-10-16T04:30:55;3.57;;;1.53;;
8007;SDS011;4049;49.468;11.200;2022-10-16T04:33:22;1.70;;;1.50;;
8007;SDS011;4049;49.468;11.200;2022-10-16T04:35:48;1.60;;;1.50;;
8007;SDS011;4049;49.468;11.200;2022-10-16T04:38:22;1.63;;;1.20;;
8007;SDS011;4049;49.468;11.200;2022-10-16T04:40:49;5.90;;;2.27;;
8007;SDS011;4049;49.468;11.200;2022-10-16T04:43:16;3.67;;;1.57;;
8007;SDS011;4049;49.468;11.200;2022-10-16T04:45:42;2.23;;;1.53;;
8007;SDS011;4049;49.468;11.200;2022-10-16T04:48:10;1.53;;;1.43;;
8007;SDS011;4049;49.468;11.200;2022-10-16T04:50:37;2.10;;;1.50;;
8007;SDS011;4049;49.468;11.200;2022-10-16T04:53:04;4.80;;;1.67;;
8007;SDS011;4049;49.468;11.200;2022-10-16T04:55:32;2.13;;;1.70;;
8007;SDS011;4049;49.468;11.200;2022-10-16T04:57:58;3.80;;;1.60;;
8007;SDS011;4049;49.468;11.200;2022-10-16T05:00:25;1.87;;;1.60;;
8007;SDS011;4049;49.468;11.200;2022-10-16T05:02:52;1.73;;;1.50;;
8007;SDS011;4049;49.468;11.200;2022-10-16T05:05:20;2.57;;;1.60;;
8007;SDS011;4049;49.468;11.200;2022-10-16T05:07:48;4.13;;;1.40;;
8007;SDS011;4049;49.468;11.200;2022-10-16T05:10:15;2.17;;;1.50;;
8007;SDS011;4049;49.468;11.200;2022-10-16T05:12:42;2.03;;;1.67;;
8007;SDS011;4049;49.468;11.200;2022-10-16T05:15:09;1.60;;;1.40;;
8007;SDS011;4049;49.468;11.200;2022-10-16T05:17:36;2.77;;;1.60;;
8007;SDS011;4049;49.468;11.200;2022-10-16T05:20:03;4.03;;;1.77;;
8007;SDS011;4049;49.468;11.200;2022-10-16T05:22:32;1.83;;;1.70;;
8007;SDS011;4049;49.468;11.200;2022-10-16T05:24:58;1.77;;;1.60;;
8007;SDS011;4049;49.468;11.200;2022-10-16T05:27:25;3.50;;;2.30;;
8007;SDS011;4049;49.468;11.200;2022-10-16T05:29:52;2.10;;;1.80;;
8007;SDS011;4049;49.468;11.200;2022-10-16T05:32:19;1.87;;;1.73;;
8007;SDS011;4049;49.468;11.200;2022-10-16T05:34:46;2.00;;;1.90;;
8007;SDS011;4049;49.468;11.200;2022-10-16T05:37:13;2.23;;;1.50;;
8007;SDS011;4049;49.468;11.200;2022-10-16T05:39:41;3.30;;;1.77;;
8007;SDS011;4049;49.468;11.200;2022-10-16T05:42:09;3.40;;;1.80;;
8007;SDS011;4049;49.468;11.200;2022-10-16T05:44:36;3.17;;;1.60;;
8007;SDS011;4049;49.468;11.200;2022-10-16T05:47:02;3.83;;;1.90;;
8007;SDS011;4049;49.468;11.200;2022-10-16T05:49:29;2.40;;;1.80;;
8007;SDS011;4049;49.468;11.200;2022-10-16T05:51:56;5.67;;;2.00;;
8007;SDS011;4049;49.468;11.200;2022-10-16T05:54:23;3.10;;;1.73;;
8007;SDS011;4049;49.468;11.200;2022-10-16T05:56:51;1.70;;;1.60;;
8007;SDS011;4049;49.468;11.200;2022-10-16T05:59:18;2.40;;;2.03;;
8007;SDS011;4049;49.468;11.200;2022-10-16T06:01:44;2.00;;;1.63;;
8007;SDS011;4049;49.468;11.200;2022-10-16T06:04:11;2.40;;;1.90;;
8007;SDS011;4049;49.468;11.200;2022-10-16T06:06:38;2.70;;;1.90;;
8007;SDS011;4049;49.468;11.200;2022-10-16T06:09:05;3.27;;;2.00;;
8007;SDS011;4049;49.468;11.200;2022-10-16T06:11:32;3.03;;;1.83;;
8007;SDS011;4049;49.468;11.200;2022-10-16T06:14:01;2.27;;;1.87;;
8007;SDS011;4049;49.468;11.200;2022-10-16T06:16:31;2.37;;;1.90;;
8007;SDS011;4049;49.468;11.200;2022-10-16T06:18:59;4.20;;;2.77;;
8007;SDS011;4049;49.468;11.200;2022-10-16T06:21:27;5.47;;;3.47;;
8007;SDS011;4049;49.468;11.200;2022-10-16T06:23:55;7.03;;;3.47;;
8007;SDS011;4049;49.468;11.200;2022-10-16T06:26:23;6.27;;;3.33;;
8007;SDS011;4049;49.468;11.200;2022-10-16T06:28:51;4.50;;;2.97;;
8007;SDS011;4049;49.468;11.200;2022-10-16T06:31:21;5.17;;;3.20;;
8007;SDS011;4049;49.468;11.200;2022-10-16T06:33:50;3.53;;;2.70;;
8007;SDS011;4049;49.468;11.200;2022-10-16T06:36:17;3.40;;;2.57;;
8007;SDS011;4049;49.468;11.200;2022-10-16T06:38:44;2.37;;;2.00;;
8007;SDS011;4049;49.468;11.200;2022-10-16T06:41:14;4.50;;;2.73;;
8007;SDS011;4049;49.468;11.200;2022-10-16T06:43:42;3.43;;;2.63;;
8007;SDS011;4049;49.468;11.200;2022-10-16T06:46:10;3.53;;;2.30;;
8007;SDS011;4049;49.468;11.200;2022-10-16T06:48:39;2.70;;;2.20;;
8007;SDS011;4049;49.468;11.200;2022-10-16T06:51:08;3.20;;;2.67;;
8007;SDS011;4049;49.468;11.200;2022-10-16T06:53:37;4.03;;;2.20;;
8007;SDS011;4049;49.468;11.200;2022-10-16T06:56:09;2.60;;;1.90;;
8007;SDS011;4049;49.468;11.200;2022-10-16T06:58:37;4.30;;;2.33;;
8007;SDS011;4049;49.468;11.200;2022-10-16T07:01:05;2.93;;;2.30;;
8007;SDS011;4049;49.468;11.200;2022-10-16T07:03:32;4.93;;;2.90;;
8007;SDS011;4049;49.468;11.200;2022-10-16T07:06:02;3.90;;;2.57;;
8007;SDS011;4049;49.468;11.200;2022-10-16T07:08:30;2.97;;;2.00;;
8007;SDS011;4049;49.468;11.200;2022-10-16T07:10:59;2.23;;;1.80;;
8007;SDS011;4049;49.468;11.200;2022-10-16T07:13:26;6.70;;;2.50;;
8007;SDS011;4049;49.468;11.200;2022-10-16T07:15:53;2.37;;;1.80;;
8007;SDS011;4049;49.468;11.200;2022-10-16T07:18:20;2.87;;;2.10;;
8007;SDS011;4049;49.468;11.200;2022-10-16T07:20:51;2.03;;;1.80;;
8007;SDS011;4049;49.468;11.200;2022-10-16T07:23:19;3.20;;;2.10;;
8007;SDS011;4049;49.468;11.200;2022-10-16T07:25:52;3.20;;;1.73;;
8007;SDS011;4049;49.468;11.200;2022-10-16T07:28:20;2.73;;;2.40;;
8007;SDS011;4049;49.468;11.200;2022-10-16T07:30:47;3.87;;;2.20;;
8007;SDS011;4049;49.468;11.200;2022-10-16T07:33:14;2.70;;;2.20;;
8007;SDS011;4049;49.468;11.200;2022-10-16T07:35:47;4.83;;;2.77;;
8007;SDS011;4049;49.468;11.200;2022-10-16T07:38:14;7.30;;;6.00;;
8007;SDS011;4049;49.468;11.200;2022-10-16T07:40:42;8.37;;;7.00;;
8007;SDS011;4049;49.468;11.200;2022-10-16T07:43:09;9.50;;;7.77;;
8007;SDS011;4049;49.468;11.200;2022-10-16T07:45:36;5.37;;;4.77;;
8007;SDS011;4049;49.468;11.200;2022-10-16T07:48:04;3.67;;;3.00;;
8007;SDS011;4049;49.468;11.200;2022-10-16T07:50:31;3.37;;;3.07;;
8007;SDS011;4049;49.468;11.200;2022-10-16T07:52:58;5.60;;;2.87;;
8007;SDS011;4049;49.468;11.200;2022-10-16T07:55:24;6.87;;;3.83;;
8007;SDS011;4049;49.468;11.200;2022-10-16T07:57:54;4.67;;;2.50;;
8007;SDS011;4049;49.468;11.200;2022-10-16T08:00:21;3.50;;;2.30;;
8007;SDS011;4049;49.468;11.200;2022-10-16T08:02:48;2.60;;;2.30;;
8007;SDS011;4049;49.468;11.200;2022-10-16T08:05:15;3.07;;;2.30;;
8007;SDS011;4049;49.468;11.200;2022-10-16T08:07:42;2.33;;;1.87;;
8007;SDS011;4049;49.468;11.200;2022-10-16T08:10:14;4.03;;;2.03;;
8007;SDS011;4049;49.468;11.200;2022-10-16T08:12:43;5.63;;;2.97;;
8007;SDS011;4049;49.468;11.200;2022-10-16T08:15:11;2.80;;;2.27;;
8007;SDS011;4049;49.468;11.200;2022-10-16T08:17:38;2.20;;;1.80;;
8007;SDS011;4049;49.468;11.200;2022-10-16T08:20:05;3.53;;;2.10;;
8007;SDS011;4049;49.468;11.200;2022-10-16T08:22:33;2.60;;;2.10;;
8007;SDS011;4049;49.468;11.200;2022-10-16T08:25:00;2.90;;;2.33;;
8007;SDS011;4049;49.468;11.200;2022-10-16T08:27:30;3.30;;;2.10;;
8007;SDS011;4049;49.468;11.200;2022-10-16T08:29:57;5.30;;;2.30;;
8007;SDS011;4049;49.468;11.200;2022-10-16T08:32:25;2.97;;;2.10;;
8007;SDS011;4049;49.468;11.200;2022-10-16T08:34:52;2.83;;;1.80;;
8007;SDS011;4049;49.468;11.200;2022-10-16T08:37:19;2.30;;;1.60;;
8007;SDS011;4049;49.468;11.200;2022-10-16T08:39:46;2.87;;;1.40;;
8007;SDS011;4049;49.468;11.200;2022-10-16T08:42:18;2.13;;;1.50;;
8007;SDS011;4049;49.468;11.200;2022-10-16T08:45:00;2.00;;;1.70;;
8007;SDS011;4049;49.468;11.200;2022-10-16T08:47:39;3.50;;;2.03;;
8007;SDS011;4049;49.468;11.200;2022-10-16T08:50:17;2.37;;;1.63;;
8007;SDS011;4049;49.468;11.200;2022-10-16T08:52:49;2.83;;;1.90;;
8007;SDS011;4049;49.468;11.200;2022-10-16T08:55:19;6.53;;;4.70;;
8007;SDS011;4049;49.468;11.200;2022-10-16T08:57:57;9.37;;;6.20;;
8007;SDS011;4049;49.468;11.200;2022-10-16T09:00:24;16.90;;;9.27;;
8007;SDS011;4049;49.468;11.200;2022-10-16T09:02:55;3.47;;;2.40;;
8007;SDS011;4049;49.468;11.200;2022-10-16T09:08:19;2.80;;;1.70;;
8007;SDS011;4049;49.468;11.200;2022-10-16T09:10:52;1.60;;;1.50;;
8007;SDS011;4049;49.468;11.200;2022-10-16T09:13:26;2.70;;;1.70;;
8007;SDS011;4049;49.468;11.200;2022-10-16T09:16:01;1.90;;;1.50;;
8007;SDS011;4049;49.468;11.200;2022-10-16T09:18:41;1.90;;;1.60;;
8007;SDS011;4049;49.468;11.200;2022-10-16T09:21:15;3.70;;;1.40;;
8007;SDS011;4049;49.468;11.200;2022-10-16T09:23:45;3.30;;;1.60;;
8007;SDS011;4049;49.468;11.200;2022-10-16T09:26:14;1.50;;;1.40;;
8007;SDS011;4049;49.468;11.200;2022-10-16T09:28:43;3.83;;;1.40;;
8007;SDS011;4049;49.468;11.200;2022-10-16T09:31:13;2.13;;;1.40;;
8007;SDS011;4049;49.468;11.200;2022-10-16T09:33:47;1.77;;;1.30;;
8007;SDS011;4049;49.468;11.200;2022-10-16T09:36:16;1.83;;;1.50;;
8007;SDS011;4049;49.468;11.200;2022-10-16T09:38:44;2.80;;;1.60;;
8007;SDS011;4049;49.468;11.200;2022-10-16T09:41:15;2.17;;;1.53;;
8007;SDS011;4049;49.468;11.200;2022-10-16T09:43:48;2.30;;;2.10;;
8007;SDS011;4049;49.468;11.200;2022-10-16T09:46:22;2.60;;;1.60;;
8007;SDS011;4049;49.468;11.200;2022-10-16T09:48:54;1.73;;;1.57;;
8007;SDS011;4049;49.468;11.200;2022-10-16T09:51:23;1.87;;;1.40;;
8007;SDS011;4049;49.468;11.200;2022-10-16T09:53:54;1.97;;;1.57;;
8007;SDS011;4049;49.468;11.200;2022-10-16T09:56:27;2.33;;;1.40;;
8007;SDS011;4049;49.468;11.200;2022-10-16T09:58:56;1.93;;;1.73;;
8007;SDS011;4049;49.468;11.200;2022-10-16T10:01:24;1.60;;;1.40;;
8007;SDS011;4049;49.468;11.200;2022-10-16T10:03:58;2.50;;;1.23;;
8007;SDS011;4049;49.468;11.200;2022-10-16T10:06:28;2.33;;;1.63;;
8007;SDS011;4049;49.468;11.200;2022-10-16T10:08:57;2.80;;;2.10;;
8007;SDS011;4049;49.468;11.200;2022-10-16T10:11:43;2.77;;;2.23;;
8007;SDS011;4049;49.468;11.200;2022-10-16T10:14:17;1.70;;;1.50;;
8007;SDS011;4049;49.468;11.200;2022-10-16T10:16:47;2.33;;;1.80;;
8007;SDS011;4049;49.468;11.200;2022-10-16T10:19:17;2.03;;;1.77;;
8007;SDS011;4049;49.468;11.200;2022-10-16T10:21:45;2.13;;;1.63;;
8007;SDS011;4049;49.468;11.200;2022-10-16T10:24:13;3.63;;;1.50;;
8007;SDS011;4049;49.468;11.200;2022-10-16T10:26:42;1.63;;;1.50;;
8007;SDS011;4049;49.468;11.200;2022-10-16T10:29:14;2.53;;;1.70;;
8007;SDS011;4049;49.468;11.200;2022-10-16T10:31:50;2.37;;;1.67;;
8007;SDS011;4049;49.468;11.200;2022-10-16T10:34:26;1.77;;;1.33;;
8007;SDS011;4049;49.468;11.200;2022-10-16T10:37:05;2.80;;;1.70;;
8007;SDS011;4049;49.468;11.200;2022-10-16T10:39:43;3.03;;;1.40;;
8007;SDS011;4049;49.468;11.200;2022-10-16T10:42:18;3.47;;;1.50;;
8007;SDS011;4049;49.468;11.200;2022-10-16T10:45:03;1.90;;;1.80;;
8007;SDS011;4049;49.468;11.200;2022-10-16T10:47:45;1.77;;;1.20;;
8007;SDS011;4049;49.468;11.200;2022-10-16T10:50:22;2.30;;;1.30;;
8007;SDS011;4049;49.468;11.200;2022-10-16T10:52:53;2.10;;;1.50;;
8007;SDS011;4049;49.468;11.200;2022-10-16T10:55:27;1.20;;;1.10;;
8007;SDS011;4049;49.468;11.200;2022-10-16T11:01:01;1.30;;;1.17;;
8007;SDS011;4049;49.468;11.200;2022-10-16T11:03:41;1.47;;;1.30;;
8007;SDS011;4049;49.468;11.200;2022-10-16T11:06:20;2.10;;;1.40;;
8007;SDS011;4049;49.468;11.200;2022-10-16T11:08:51;3.63;;;1.83;;
8007;SDS011;4049;49.468;11.200;2022-10-16T11:11:23;3.37;;;1.60;;
8007;SDS011;4049;49.468;11.200;2022-10-16T11:13:54;1.97;;;1.40;;
8007;SDS011;4049;49.468;11.200;2022-10-16T11:16:26;2.53;;;1.20;;
8007;SDS011;4049;49.468;11.200;2022-10-16T11:18:56;1.50;;;1.30;;
8007;SDS011;4049;49.468;11.200;2022-10-16T11:21:29;2.43;;;1.20;;
8007;SDS011;4049;49.468;11.200;2022-10-16T11:24:02;4.53;;;1.70;;
8007;SDS011;4049;49.468;11.200;2022-10-16T11:26:37;1.40;;;1.30;;
8007;SDS011;4049;49.468;11.200;2022-10-16T11:29:08;4.77;;;1.30;;
8007;SDS011;4049;49.468;11.200;2022-10-16T11:31:40;1.77;;;1.50;;
8007;SDS011;4049;49.468;11.200;2022-10-16T11:34:13;3.23;;;1.60;;
8007;SDS011;4049;49.468;11.200;2022-10-16T11:36:51;1.63;;;1.20;;
8007;SDS011;4049;49.468;11.200;2022-10-16T11:39:24;1.30;;;1.20;;
8007;SDS011;4049;49.468;11.200;2022-10-16T11:41:54;6.20;;;1.70;;
8007;SDS011;4049;49.468;11.200;2022-10-16T11:44:31;2.60;;;1.47;;
8007;SDS011;4049;49.468;11.200;2022-10-16T11:47:09;1.70;;;1.23;;
8007;SDS011;4049;49.468;11.200;2022-10-16T11:49:45;2.57;;;1.57;;
8007;SDS011;4049;49.468;11.200;2022-10-16T11:52:19;1.40;;;1.30;;
8007;SDS011;4049;49.468;11.200;2022-10-16T11:54:51;1.13;;;1.03;;
8007;SDS011;4049;49.468;11.200;2022-10-16T11:57:23;1.83;;;1.50;;
8007;SDS011;4049;49.468;11.200;2022-10-16T11:59:53;2.00;;;1.50;;
8007;SDS011;4049;49.468;11.200;2022-10-16T12:02:35;3.33;;;1.37;;
8007;SDS011;4049;49.468;11.200;2022-10-16T12:05:18;2.20;;;1.40;;
8007;SDS011;4049;49.468;11.200;2022-10-16T12:07:56;1.30;;;1.20;;
8007;SDS011;4049;49.468;11.200;2022-10-16T12:10:33;1.80;;;1.57;;
8007;SDS011;4049;49.468;11.200;2022-10-16T12:13:02;2.60;;;1.40;;
8007;SDS011;4049;49.468;11.200;2022-10-16T12:15:30;3.93;;;1.97;;
8007;SDS011;4049;49.468;11.200;2022-10-16T12:17:58;1.60;;;1.40;;
8007;SDS011;4049;49.468;11.200;2022-10-16T12:20:27;2.23;;;1.70;;
8007;SDS011;4049;49.468;11.200;2022-10-16T12:22:59;1.57;;;1.30;;
8007;SDS011;4049;49.468;11.200;2022-10-16T12:25:29;3.00;;;1.47;;
8007;SDS011;4049;49.468;11.200;2022-10-16T12:27:59;1.50;;;1.30;;
8007;SDS011;4049;49.468;11.200;2022-10-16T12:30:28;2.03;;;1.40;;
8007;SDS011;4049;49.468;11.200;2022-10-16T12:32:57;3.97;;;2.00;;
8007;SDS011;4049;49.468;11.200;2022-10-16T12:35:27;3.47;;;1.20;;
8007;SDS011;4049;49.468;11.200;2022-10-16T12:38:05;3.10;;;1.93;;
8007;SDS011;4049;49.468;11.200;2022-10-16T12:40:35;1.60;;;1.30;;
8007;SDS011;4049;49.468;11.200;2022-10-16T12:43:13;2.20;;;1.77;;
8007;SDS011;4049;49.468;11.200;2022-10-16T12:46:01;1.70;;;1.60;;
8007;SDS011;4049;49.468;11.200;2022-10-16T12:48:30;1.30;;;1.20;;
8007;SDS011;4049;49.468;11.200;2022-10-16T12:50:57;3.40;;;1.23;;
8007;SDS011;4049;49.468;11.200;2022-10-16T12:53:36;3.00;;;1.57;;
8007;SDS011;4049;49.468;11.200;2022-10-16T12:56:05;1.27;;;1.17;;
8007;SDS011;4049;49.468;11.200;2022-10-16T12:58:47;1.87;;;1.40;;
8007;SDS011;4049;49.468;11.200;2022-10-16T13:01:31;1.67;;;1.17;;
8007;SDS011;4049;49.468;11.200;2022-10-16T13:07:09;2.43;;;1.30;;
8007;SDS011;4049;49.468;11.200;2022-10-16T13:09:58;1.60;;;1.43;;
8007;SDS011;4049;49.468;11.200;2022-10-16T13:12:40;1.70;;;1.37;;
8007;SDS011;4049;49.468;11.200;2022-10-16T13:15:25;1.60;;;1.47;;
8007;SDS011;4049;49.468;11.200;2022-10-16T13:18:03;2.27;;;1.40;;
8007;SDS011;4049;49.468;11.200;2022-10-16T13:20:42;3.27;;;1.50;;
8007;SDS011;4049;49.468;11.200;2022-10-16T13:23:23;1.70;;;1.43;;
8007;SDS011;4049;49.468;11.200;2022-10-16T13:25:59;2.28;;;1.30;;
8007;SDS011;4049;49.468;11.200;2022-10-16T13:28:35;2.13;;;1.30;;
8007;SDS011;4049;49.468;11.200;2022-10-16T13:31:04;1.50;;;1.40;;
8007;SDS011;4049;49.468;11.200;2022-10-16T13:33:37;2.17;;;1.52;;
8007;SDS011;4049;49.468;11.200;2022-10-16T13:36:05;2.83;;;1.47;;
8007;SDS011;4049;49.468;11.200;2022-10-16T13:38:33;1.83;;;1.23;;
8007;SDS011;4049;49.468;11.200;2022-10-16T13:41:03;1.60;;;1.40;;
8007;SDS011;4049;49.468;11.200;2022-10-16T13:43:32;1.33;;;1.10;;
8007;SDS011;4049;49.468;11.200;2022-10-16T13:46:02;3.33;;;1.40;;
8007;SDS011;4049;49.468;11.200;2022-10-16T13:48:30;1.53;;;1.30;;
8007;SDS011;4049;49.468;11.200;2022-10-16T13:50:58;1.60;;;1.30;;
8007;SDS011;4049;49.468;11.200;2022-10-16T13:53:25;6.07;;;1.53;;
8007;SDS011;4049;49.468;11.200;2022-10-16T13:55:52;1.97;;;1.43;;
8007;SDS011;4049;49.468;11.200;2022-10-16T13:58:21;1.30;;;1.20;;
8007;SDS011;4049;49.468;11.200;2022-10-16T14:00:54;3.87;;;1.60;;
8007;SDS011;4049;49.468;11.200;2022-10-16T14:03:23;1.95;;;1.35;;
8007;SDS011;4049;49.468;11.200;2022-10-16T14:05:51;1.50;;;1.40;;
8007;SDS011;4049;49.468;11.200;2022-10-16T14:08:20;1.60;;;1.30;;
8007;SDS011;4049;49.468;11.200;2022-10-16T14:10:49;2.40;;;1.43;;
8007;SDS011;4049;49.468;11.200;2022-10-16T14:13:18;3.25;;;1.30;;
8007;SDS011;4049;49.468;11.200;2022-10-16T14:15:56;1.67;;;1.33;;
8007;SDS011;4049;49.468;11.200;2022-10-16T14:18:24;2.28;;;1.52;;
8007;SDS011;4049;49.468;11.200;2022-10-16T14:20:53;2.42;;;1.63;;
8007;SDS011;4049;49.468;11.200;2022-10-16T14:23:22;2.97;;;1.90;;
8007;SDS011;4049;49.468;11.200;2022-10-16T14:25:54;2.00;;;1.30;;
8007;SDS011;4049;49.468;11.200;2022-10-16T14:28:33;2.08;;;1.50;;
8007;SDS011;4049;49.468;11.200;2022-10-16T14:31:00;1.40;;;1.30;;
8007;SDS011;4049;49.468;11.200;2022-10-16T14:33:31;1.70;;;1.55;;
8007;SDS011;4049;49.468;11.200;2022-10-16T14:36:00;2.15;;;1.95;;
8007;SDS011;4049;49.468;11.200;2022-10-16T14:38:30;1.92;;;1.42;;
8007;SDS011;4049;49.468;11.200;2022-10-16T14:40:57;2.63;;;1.80;;
8007;SDS011;4049;49.468;11.200;2022-10-16T14:43:27;1.77;;;1.50;;
8007;SDS011;4049;49.468;11.200;2022-10-16T14:45:59;1.70;;;1.30;;
8007;SDS011;4049;49.468;11.200;2022-10-16T14:48:29;1.45;;;1.35;;
8007;SDS011;4049;49.468;11.200;2022-10-16T14:50:56;2.28;;;1.20;;
8007;SDS011;4049;49.468;11.200;2022-10-16T14:53:23;3.55;;;2.55;;
8007;SDS011;4049;49.468;11.200;2022-10-16T14:55:50;3.20;;;1.50;;
8007;SDS011;4049;49.468;11.200;2022-10-16T14:58:18;1.97;;;1.60;;
8007;SDS011;4049;49.468;11.200;2022-10-16T15:00:47;1.83;;;1.50;;
8007;SDS011;4049;49.468;11.200;2022-10-16T15:03:16;2.10;;;1.42;;
8007;SDS011;4049;49.468;11.200;2022-10-16T15:05:42;2.40;;;1.40;;
8007;SDS011;4049;49.468;11.200;2022-10-16T15:08:09;1.80;;;1.40;;
8007;SDS011;4049;49.468;11.200;2022-10-16T15:10:38;2.37;;;1.20;;
8007;SDS011;4049;49.468;11.200;2022-10-16T15:13:06;1.75;;;1.30;;
8007;SDS011;4049;49.468;11.200;2022-10-16T15:15:37;1.97;;;1.27;;
8007;SDS011;4049;49.468;11.200;2022-10-16T15:18:07;3.13;;;1.30;;
8007;SDS011;4049;49.468;11.200;2022-10-16T15:20:36;2.33;;;1.40;;
8007;SDS011;4049;49.468;11.200;2022-10-16T15:23:05;2.90;;;2.13;;
8007;SDS011;4049;49.468;11.200;2022-10-16T15:25:37;2.83;;;1.70;;